Kezdőlap
METAR-TAF:

METAR-TAF

Repülőterek :

Tôlanaro, Madagaszkár

földrajzi szélesség: 25-02S, földrajzi hosszúság: 046-57E, magasság: 8 m

Jelenlegi meteorológiai megfigyelések

A jelentés 58 perccel ezelõtt készült, 03:00 UTC
Észak-északnyugati szél 4 kt
Hőmérséklet 23°C
Páratartalom 78%
Légköri nyomás 1017 hPa
Látótávolság 10 km, vagy több
Szórványos felhőzet 1600 lábon
Szakadozott felhőzet 3300 lábon

METAR: FMSD 140300Z 34004KT 9999 SCT016 BKN033 23/19 Q1017

Idő: 06:58 (03:58 UTC)


TAF: hiányzik

Meteorológiai megfigyelések és előrejelzések több, mint 4000 repülőtéren (METAR és TAF jelentéseket).

A térképen piros és sárga pontok jelzik az elérhető meteorológiai állomásokat.

Mozgassa az egeret a pont fölött, hogy megjelenjen az állomás neve.

Azután kattintson az időjárási megfigyelések és előrejelzések megtekintéséhez.

A térkép megváltoztatása: kattintson a fekete keresztel jelölt zöld gombra ráközelítéshez, a vonallal jelölt zöld gombra távolításhoz, vagy a zöld nyilakra a szomszédos térképek eléréséhez.


METAR-TAF: